Aviation Digital Data Service (ADDS)

Output produced by TAFs form (1905 UTC 01 September 2014)
found at http://www.aviationweather.gov/adds/tafs/
 
KIAD 011843Z 0119/0224 23005KT P6SM VCTS BKN050CB 
     TEMPO 0119/0120 VRB25KT 5SM TSRA 
     FM012300 20005KT P6SM BKN090 
     FM020200 21004KT P6SM FEW090 SCT250 
     FM020700 00000KT P6SM SCT250 
     FM021500 27006KT P6SM SCT090 
     FM022000 21009KT P6SM BKN050